Time;durP1;ratioP1;P1;durP2;ratioP2;P2;SDS_P1;SDS_P2;PMS_P1;PMS_P2;Temp;Humidity;BMP_temperature;BMP_pressure;BME280_temperature;BME280_humidity;BME280_pressure;Samples;Min_cycle;Max_cycle;Signal;HPM_P1;HPM_P2
2022/01/14 00:01:50;;;;;;;94.07;40.95;;;0.90;2201.60;;;;;;4894318;29;20492;-78
2022/01/14 00:04:15;;;;;;;;;;;0.90;2201.60;;;;;;4893256;29;20063;-84
2022/01/14 00:06:41;;;;;;;88.60;39.35;;;25.60;2201.60;;;;;;4892646;29;19906;-76
2022/01/14 00:09:09;;;;;;;;;;;0.90;2201.60;;;;;;4913385;29;20172;-81
2022/01/14 00:11:51;;;;;;;96.45;42.17;;;25.70;2201.60;;;;;;4916207;29;20002;-88
2022/01/14 00:16:45;;;;;;;100.82;44.08;;;25.80;2201.60;;;;;;4912965;29;20028;-89
2022/01/14 00:19:11;;;;;;;100.60;40.85;;;26.10;2201.60;;;;;;4893756;29;20048;-77
2022/01/14 00:21:38;;;;;;;;;;;26.10;2201.60;;;;;;4891466;29;20032;-80
2022/01/14 00:34:52;;;;;;;94.22;39.90;;;26.10;2201.60;;;;;;4841949;29;20080;-84
2022/01/14 00:37:18;;;;;;;86.35;40.10;;;26.20;2201.60;;;;;;4841458;29;20081;-88
2022/01/14 00:39:44;;;;;;;;;;;26.20;2201.60;;;;;;4842026;29;20041;-85
2022/01/14 00:42:10;;;;;;;96.55;40.60;;;26.20;2201.60;;;;;;4841164;29;20412;-81
2022/01/14 00:44:37;;;;;;;85.25;39.15;;;26.10;2201.60;;;;;;4841839;29;20033;-84
2022/01/14 00:47:04;;;;;;;88.03;38.75;;;25.90;2201.60;;;;;;4841801;29;20037;-80
2022/01/14 00:49:30;;;;;;;91.43;39.90;;;26.30;2201.60;;;;;;4841887;29;20046;-86
2022/01/14 00:51:56;;;;;;;88.57;39.67;;;26.40;2201.60;;;;;;4827100;29;20030;-87
2022/01/14 00:54:24;;;;;;;86.68;39.95;;;26.50;2201.60;;;;;;4841956;29;20052;-84
2022/01/14 00:57:12;;;;;;;93.47;42.13;;;26.50;2201.60;;;;;;4843313;29;20129;-79
2022/01/14 00:59:36;;;;;;;89.20;40.08;;;26.30;2201.60;;;;;;4841837;29;20062;-87
2022/01/14 01:02:02;;;;;;;;;;;26.20;2201.60;;;;;;4826567;29;20038;-85
2022/01/14 01:04:35;;;;;;;67.27;29.07;;;26.40;2201.60;;;;;;4842388;29;19961;-84
2022/01/14 01:07:04;;;;;;;90.25;36.20;;;26.50;2201.60;;;;;;4849707;29;20264;-77
2022/01/14 01:09:31;;;;;;;87.70;36.38;;;26.50;2201.60;;;;;;4907207;29;20045;-81
2022/01/14 01:12:12;;;;;;;81.43;37.15;;;26.50;2201.60;;;;;;4892565;29;20504;-85
2022/01/14 01:14:49;;;;;;;76.88;35.90;;;51.20;2227.20;;;;;;4909442;29;20029;-84
2022/01/14 01:17:15;;;;;;;80.97;36.17;;;51.30;2227.20;;;;;;4897517;29;20452;-84
2022/01/14 01:19:41;;;;;;;;;;;51.30;2227.20;;;;;;4908425;29;20080;-87
2022/01/14 01:22:07;;;;;;;81.70;35.72;;;51.20;2227.20;;;;;;4905028;29;19907;-83
2022/01/14 01:24:33;;;;;;;75.90;35.17;;;26.50;2201.60;;;;;;4909044;29;20024;-85
2022/01/14 01:27:04;;;;;;;84.68;35.78;;;26.50;2201.60;;;;;;4906945;29;20541;-84
2022/01/14 01:29:45;;;;;;;76.53;35.88;;;26.20;2201.60;;;;;;4891714;29;20067;-83
2022/01/14 01:32:11;;;;;;;78.97;35.92;;;26.20;2201.60;;;;;;4914113;29;20032;-80
2022/01/14 01:34:37;;;;;;;;;;;26.50;2201.60;;;;;;4908500;29;20031;-85
2022/01/14 01:37:04;;;;;;;83.03;36.50;;;51.20;2227.20;;;;;;4906850;29;19925;-85
2022/01/14 01:39:33;;;;;;;85.15;37.75;;;51.20;2227.20;;;;;;4898550;29;20378;-87
2022/01/14 01:42:05;;;;;;;85.15;39.28;;;51.20;2227.20;;;;;;4896464;29;20048;-81
2022/01/14 01:44:32;;;;;;;84.97;37.80;;;51.20;2227.20;;;;;;4898256;29;20040;-80
2022/01/14 01:46:59;;;;;;;81.95;38.03;;;26.50;2201.60;;;;;;4897388;29;20062;-86
2022/01/14 01:49:31;;;;;;;84.80;37.42;;;26.50;2201.60;;;;;;4881590;29;20172;-81
2022/01/14 01:51:58;;;;;;;86.80;38.38;;;51.20;2227.20;;;;;;4878492;29;20060;-77
2022/01/14 01:54:25;;;;;;;82.97;38.13;;;51.20;2227.20;;;;;;4896149;29;20068;-81
2022/01/14 01:56:51;;;;;;;83.93;38.05;;;51.20;2227.20;;;;;;4881112;29;20077;-83
2022/01/14 01:59:21;;;;;;;;;;;51.20;2227.20;;;;;;4896614;29;20031;-84
2022/01/14 02:01:48;;;;;;;80.15;34.60;;;51.20;2227.20;;;;;;4881545;29;19907;-83
2022/01/14 02:04:14;;;;;;;87.32;39.42;;;26.50;2201.60;;;;;;4897128;29;20044;-83
2022/01/14 02:06:41;;;;;;;82.20;37.22;;;51.20;2227.20;;;;;;4880985;29;20024;-82
2022/01/14 02:09:08;;;;;;;72.90;35.15;;;26.50;2201.60;;;;;;4880730;29;20489;-85
2022/01/14 02:11:34;;;;;;;78.38;36.60;;;51.20;2227.20;;;;;;4897599;29;20029;-83
2022/01/14 02:14:05;;;;;;;;;;;26.50;2201.60;;;;;;4898185;29;20028;-84
2022/01/14 02:16:34;;;;;;;71.68;32.78;;;51.30;2227.20;;;;;;4881382;29;19911;-84
2022/01/14 02:24:44;;;;;;;78.05;38.00;;;26.50;2201.60;;;;;;4896106;29;20116;-84
2022/01/14 02:27:08;;;;;;;78.45;34.50;;;26.40;2201.60;;;;;;4896336;29;20055;-86
2022/01/14 02:29:34;;;;;;;83.78;35.33;;;26.40;2201.60;;;;;;4880684;29;20047;-86
2022/01/14 02:32:00;;;;;;;74.95;33.53;;;26.30;2201.60;;;;;;4881448;29;20059;-82
2022/01/14 02:34:26;;;;;;;78.85;36.95;;;26.20;2201.60;;;;;;4881508;29;20477;-81
2022/01/14 02:36:52;;;;;;;78.53;33.95;;;26.40;2201.60;;;;;;4897787;29;20028;-84
2022/01/14 02:39:20;;;;;;;80.00;34.70;;;26.40;2201.60;;;;;;4907808;29;20055;-86
2022/01/14 02:41:48;;;;;;;72.15;34.28;;;26.40;2201.60;;;;;;4909677;29;20024;-86
2022/01/14 02:44:18;;;;;;;85.22;35.00;;;26.50;2201.60;;;;;;4907923;29;20025;-86
2022/01/14 02:46:53;;;;;;;80.07;35.92;;;26.50;2201.60;;;;;;4888831;29;20039;-86
2022/01/14 02:49:20;;;;;;;79.00;35.50;;;26.50;2201.60;;;;;;4892254;29;20028;-81
2022/01/14 02:51:46;;;;;;;76.65;35.60;;;51.20;2227.20;;;;;;4907120;29;20024;-77
2022/01/14 02:54:22;;;;;;;79.43;34.83;;;51.20;2227.20;;;;;;4891170;29;20039;-83
2022/01/14 02:56:52;;;;;;;63.55;28.95;;;51.30;2227.20;;;;;;4892153;29;20437;-79
2022/01/14 02:59:20;;;;;;;79.88;36.10;;;26.40;2201.60;;;;;;4913355;29;20025;-86
2022/01/14 03:01:48;;;;;;;76.55;36.40;;;51.20;2227.20;;;;;;4890287;29;20028;-83
2022/01/14 03:04:19;;;;;;;81.95;34.22;;;51.20;2227.20;;;;;;4907497;29;20029;-85
2022/01/14 03:06:45;;;;;;;86.60;36.47;;;51.20;2227.20;;;;;;4910987;29;20051;-84
2022/01/14 03:09:11;;;;;;;81.20;37.65;;;26.50;2201.60;;;;;;4893363;29;20035;-82
2022/01/14 03:11:47;;;;;;;80.13;39.47;;;51.20;2227.20;;;;;;4892400;29;20040;-84
2022/01/14 03:14:21;;;;;;;69.15;29.42;;;26.50;2201.60;;;;;;4905494;29;20033;-85
2022/01/14 03:16:48;;;;;;;80.63;34.17;;;26.50;2201.60;;;;;;4897721;29;20016;-86
2022/01/14 03:19:20;;;;;;;80.22;35.45;;;26.50;2201.60;;;;;;4912075;29;20090;-87
2022/01/14 03:21:46;;;;;;;83.38;36.42;;;26.50;2201.60;;;;;;4912360;29;20465;-84
2022/01/14 03:24:22;;;;;;;79.10;36.90;;;51.20;2227.20;;;;;;4893098;29;20119;-83
2022/01/14 03:26:50;;;;;;;76.57;34.83;;;51.30;2227.20;;;;;;4894140;29;20029;-86
2022/01/14 03:29:17;;;;;;;83.18;38.25;;;51.30;2227.20;;;;;;4911572;29;20276;-83
2022/01/14 03:31:45;;;;;;;71.57;35.33;;;26.40;2201.60;;;;;;4915803;29;20040;-86
2022/01/14 03:34:11;;;;;;;83.00;39.13;;;26.40;2201.60;;;;;;4919593;29;20032;-83
2022/01/14 03:36:37;;;;;;;;;;;26.40;2201.60;;;;;;4896244;29;20684;-85
2022/01/14 03:39:04;;;;;;;69.57;33.85;;;26.50;2201.60;;;;;;4909325;29;19998;-79
2022/01/14 03:41:29;;;;;;;80.82;36.67;;;26.50;2201.60;;;;;;4919277;29;20036;-86
2022/01/14 03:43:55;;;;;;;;;;;26.40;2201.60;;;;;;4902932;29;20420;-83
2022/01/14 03:46:21;;;;;;;89.32;35.00;;;26.50;2201.60;;;;;;4897226;29;19995;-76
2022/01/14 03:48:46;;;;;;;;;;;26.40;2201.60;;;;;;4893580;29;20405;-81
2022/01/14 03:51:12;;;;;;;83.50;35.75;;;26.50;2201.60;;;;;;4893395;29;19932;-87
2022/01/14 03:53:39;;;;;;;84.72;38.05;;;26.50;2201.60;;;;;;4911034;29;20023;-80
2022/01/14 03:56:05;;;;;;;71.32;31.48;;;26.40;2201.60;;;;;;4892218;29;20055;-86
2022/01/14 03:58:31;;;;;;;75.53;35.35;;;51.40;2227.20;;;;;;4893424;29;20024;-86
2022/01/14 04:00:57;;;;;;;;;;;26.40;2201.60;;;;;;4894699;29;20100;-86
2022/01/14 04:03:22;;;;;;;72.97;34.30;;;26.50;2201.60;;;;;;4910935;29;19907;-86
2022/01/14 04:05:48;;;;;;;;;;;26.50;2201.60;;;;;;4910299;29;20020;-84
2022/01/14 04:08:14;;;;;;;76.95;36.00;;;26.40;2201.60;;;;;;4894086;29;19918;-84
2022/01/14 04:10:39;;;;;;;;;;;26.40;2201.60;;;;;;4893655;29;20036;-85
2022/01/14 04:13:13;;;;;;;81.72;38.40;;;26.40;2201.60;;;;;;4909350;29;19998;-84
2022/01/14 04:15:44;;;;;;;74.45;32.40;;;26.40;2201.60;;;;;;4889293;29;20033;-81
2022/01/14 04:18:16;;;;;;;69.50;33.08;;;26.40;2201.60;;;;;;4892775;29;20047;-84
2022/01/14 04:20:45;;;;;;;63.30;30.85;;;26.40;2201.60;;;;;;4916360;29;20047;-86
2022/01/14 04:23:12;;;;;;;68.38;28.60;;;26.40;2201.60;;;;;;4911754;29;20036;-84
2022/01/14 04:25:38;;;;;;;;;;;26.10;2201.60;;;;;;4910754;29;20021;-80
2022/01/14 04:28:05;;;;;;;52.20;22.33;;;26.20;2201.60;;;;;;4910384;29;19946;-76
2022/01/14 04:30:32;;;;;;;62.67;28.10;;;26.00;2201.60;;;;;;4897984;29;20088;-83
2022/01/14 04:32:58;;;;;;;65.57;31.63;;;26.20;2201.60;;;;;;4917551;29;20031;-85
2022/01/14 04:35:24;;;;;;;;;;;26.10;2201.60;;;;;;4896303;29;20058;-81
2022/01/14 04:37:50;;;;;;;69.40;29.17;;;26.10;2201.60;;;;;;4906111;29;19919;-83
2022/01/14 04:40:16;;;;;;;;;;;26.10;2201.60;;;;;;4909090;29;20043;-81
2022/01/14 04:42:42;;;;;;;57.47;26.38;;;26.10;2201.60;;;;;;4893467;29;19954;-82
2022/01/14 04:45:25;;;;;;;63.15;26.60;;;26.00;2201.60;;;;;;4910098;29;20556;-85
2022/01/14 04:47:50;;;;;;;72.15;29.55;;;26.00;2201.60;;;;;;4906105;29;20051;-87
2022/01/14 04:50:17;;;;;;;;;;;26.10;2201.60;;;;;;4894001;29;20048;-87
2022/01/14 04:52:45;;;;;;;48.72;21.63;;;26.10;2201.60;;;;;;4901518;29;20553;-85
2022/01/14 04:55:12;;;;;;;61.42;27.15;;;26.10;2201.60;;;;;;4894852;29;20021;-85
2022/01/14 04:57:38;;;;;;;60.80;29.33;;;26.10;2201.60;;;;;;4909772;29;20080;-85
2022/01/14 05:00:07;;;;;;;70.88;31.48;;;26.00;2201.60;;;;;;4893657;29;20032;-83
2022/01/14 05:02:33;;;;;;;64.97;28.33;;;26.00;2201.60;;;;;;4891253;29;20128;-87
2022/01/14 05:05:00;;;;;;;;;;;26.00;2201.60;;;;;;4908398;29;20039;-82
2022/01/14 05:07:27;;;;;;;50.25;22.38;;;25.90;2201.60;;;;;;4904793;29;19914;-85
2022/01/14 05:12:29;;;;;;;63.03;26.20;;;25.80;2201.60;;;;;;4911930;29;20040;-87
2022/01/14 05:14:55;;;;;;;64.70;28.80;;;25.90;2201.60;;;;;;4903851;29;20032;-85
2022/01/14 05:17:20;;;;;;;;;;;26.00;2201.60;;;;;;4910685;29;20027;-88
2022/01/14 05:19:46;;;;;;;64.60;27.65;;;26.00;2201.60;;;;;;4910067;29;19908;-83
2022/01/14 05:22:13;;;;;;;70.30;31.05;;;25.90;2201.60;;;;;;4893374;29;20037;-88
2022/01/14 05:24:39;;;;;;;64.18;29.38;;;25.90;2201.60;;;;;;4907816;29;20024;-76
2022/01/14 05:27:04;;;;;;;;;;;26.00;2201.60;;;;;;4890543;29;20074;-79
2022/01/14 05:29:30;;;;;;;67.82;28.75;;;26.00;2201.60;;;;;;4906276;29;20360;-87
2022/01/14 05:32:03;;;;;;;;;;;25.90;2201.60;;;;;;4906713;29;20043;-87
2022/01/14 05:34:33;;;;;;;66.90;26.60;;;26.00;2201.60;;;;;;4908634;29;20471;-82
2022/01/14 05:37:01;;;;;;;69.03;29.45;;;26.00;2201.60;;;;;;4907924;29;20020;-85
2022/01/14 05:39:27;;;;;;;64.53;29.95;;;26.00;2201.60;;;;;;4898283;29;20526;-83
2022/01/14 05:41:55;;;;;;;64.72;29.88;;;26.10;2201.60;;;;;;4881412;29;20045;-86
2022/01/14 05:44:23;;;;;;;65.28;31.92;;;26.10;2201.60;;;;;;4882178;29;20029;-87
2022/01/14 05:46:49;;;;;;;65.45;30.13;;;26.10;2201.60;;;;;;4879396;29;20048;-79
2022/01/14 05:49:14;;;;;;;;;;;26.00;2201.60;;;;;;4897743;29;20032;-83
2022/01/14 05:51:40;;;;;;;65.85;27.77;;;26.00;2201.60;;;;;;4882043;29;19911;-86
2022/01/14 05:54:06;;;;;;;;;;;26.00;2201.60;;;;;;4898997;29;20027;-83
2022/01/14 05:56:32;;;;;;;66.50;29.15;;;25.90;2201.60;;;;;;4881496;29;19994;-81
2022/01/14 05:58:57;;;;;;;;;;;25.90;2201.60;;;;;;4882340;29;20393;-82
2022/01/14 06:01:23;;;;;;;62.15;28.58;;;26.00;2201.60;;;;;;4881600;29;19911;-81
2022/01/14 06:03:49;;;;;;;;;;;26.00;2201.60;;;;;;4898787;29;20476;-83
2022/01/14 06:06:14;;;;;;;67.47;32.05;;;25.90;2201.60;;;;;;4898212;29;20352;-86
2022/01/14 06:08:40;;;;;;;;;;;25.90;2201.60;;;;;;4898657;29;20081;-83
2022/01/14 06:11:06;;;;;;;61.50;29.70;;;25.90;2201.60;;;;;;4898079;29;19920;-79
2022/01/14 06:13:31;;;;;;;;;;;26.00;2201.60;;;;;;4881377;29;20054;-85
2022/01/14 06:15:57;;;;;;;72.45;30.30;;;26.00;2201.60;;;;;;4881689;29;19931;-85
2022/01/14 06:18:23;;;;;;;80.75;35.28;;;26.10;2201.60;;;;;;4898183;29;20071;-86
2022/01/14 06:20:48;;;;;;;;;;;25.90;2201.60;;;;;;4895573;29;20059;-75
2022/01/14 06:23:14;;;;;;;83.78;35.83;;;25.60;2201.60;;;;;;4881038;29;19908;-85
2022/01/14 06:25:40;;;;;;;;;;;0.80;2201.60;;;;;;4881724;29;20021;-86
2022/01/14 06:28:06;;;;;;;80.82;34.65;;;0.50;2201.60;;;;;;4897829;29;19914;-80
2022/01/14 06:30:31;;;;;;;;;;;0.20;2201.60;;;;;;4896926;29;20405;-81
2022/01/14 06:32:57;;;;;;;95.30;41.33;;;0.00;2201.60;;;;;;4880932;29;20268;-81
2022/01/14 06:35:23;;;;;;;;;;;13.00;2201.60;;;;;;4897199;29;20537;-79
2022/01/14 06:37:49;;;;;;;85.68;38.63;;;13.10;2201.60;;;;;;4882976;29;19912;-87
2022/01/14 06:40:15;;;;;;;92.80;39.30;;;13.10;2201.60;;;;;;4906359;29;20028;-82
2022/01/14 06:42:41;;;;;;;86.53;39.53;;;13.40;2201.60;;;;;;4890966;29;20040;-79
2022/01/14 06:45:08;;;;;;;;;;;12.90;2201.60;;;;;;4908656;29;20100;-87
2022/01/14 06:47:34;;;;;;;74.95;32.83;;;12.90;2201.60;;;;;;4895567;29;19911;-86
2022/01/14 06:49:59;;;;;;;;;;;13.00;2201.60;;;;;;4892366;29;20056;-83
2022/01/14 06:52:25;;;;;;;93.18;39.33;;;0.00;2201.60;;;;;;4891899;29;19911;-89
2022/01/14 06:54:51;;;;;;;;;;;0.10;2201.60;;;;;;4905930;29;20087;-87
2022/01/14 06:57:17;;;;;;;91.65;39.58;;;12.90;2201.60;;;;;;4909080;29;19915;-89
2022/01/14 06:59:42;;;;;;;;;;;0.10;2201.60;;;;;;4908411;29;20036;-81
2022/01/14 07:02:09;;;;;;;106.30;45.47;;;0.30;2201.60;;;;;;4892213;29;20007;-83
2022/01/14 07:04:36;;;;;;;108.10;45.40;;;0.40;2201.60;;;;;;4897496;29;20084;-79
2022/01/14 07:07:02;;;;;;;98.03;43.05;;;0.40;2201.60;;;;;;4894435;29;20024;-76
2022/01/14 07:09:30;;;;;;;77.50;35.53;;;0.50;2201.60;;;;;;4915987;29;20033;-78
2022/01/14 07:11:58;;;;;;;78.38;36.47;;;0.60;2201.60;;;;;;4905350;29;20021;-77
2022/01/14 07:14:25;;;;;;;79.22;35.20;;;0.50;2201.60;;;;;;4890444;29;20035;-76
2022/01/14 07:16:51;;;;;;;72.25;33.25;;;0.50;2201.60;;;;;;4888355;29;20473;-88
2022/01/14 07:19:20;;;;;;;73.32;32.03;;;0.60;2201.60;;;;;;4905148;29;20021;-79
2022/01/14 07:21:45;;;;;;;73.70;33.90;;;0.60;2201.60;;;;;;4906860;29;20456;-85
2022/01/14 07:24:13;;;;;;;;;;;0.80;2201.60;;;;;;4905513;29;20044;-76
2022/01/14 07:26:40;;;;;;;58.90;26.65;;;0.70;2201.60;;;;;;4907612;29;19907;-84
2022/01/14 07:29:05;;;;;;;77.03;33.20;;;0.60;2201.60;;;;;;4905008;29;20036;-89
2022/01/14 07:31:31;;;;;;;;;;;0.90;2201.60;;;;;;4932134;29;20044;-90
2022/01/14 07:33:57;;;;;;;70.25;30.42;;;0.90;2201.60;;;;;;4898225;29;19915;-86
2022/01/14 07:36:23;;;;;;;;;;;0.90;2201.60;;;;;;4893535;29;20029;-81
2022/01/14 07:38:48;;;;;;;65.22;31.38;;;25.70;2201.60;;;;;;4907993;29;19919;-86
2022/01/14 07:41:14;;;;;;;;;;;25.70;2201.60;;;;;;4890978;29;20046;-81
2022/01/14 07:43:41;;;;;;;69.82;31.80;;;25.70;2201.60;;;;;;4891651;29;19908;-84
2022/01/14 07:46:07;;;;;;;76.13;34.58;;;25.90;2201.60;;;;;;4910807;29;20453;-88
2022/01/14 07:48:32;;;;;;;;;;;26.10;2201.60;;;;;;4905903;29;20108;-86
2022/01/14 07:50:58;;;;;;;85.55;35.28;;;26.20;2201.60;;;;;;4890278;29;19962;-89
2022/01/14 07:53:24;;;;;;;;;;;26.20;2201.60;;;;;;4909192;29;20031;-76
2022/01/14 07:55:49;;;;;;;81.03;34.53;;;26.00;2201.60;;;;;;4893425;29;19915;-75
2022/01/14 07:58:16;;;;;;;;;;;26.20;2201.60;;;;;;4908039;29;20032;-78
2022/01/14 08:00:42;;;;;;;84.90;40.10;;;26.30;2201.60;;;;;;4912382;29;19907;-76
2022/01/14 08:03:08;;;;;;;127.18;55.70;;;26.50;2201.60;;;;;;4917350;29;20024;-75
2022/01/14 08:05:34;;;;;;;83.10;41.92;;;26.50;2201.60;;;;;;4918634;29;20455;-75
2022/01/14 08:08:03;;;;;;;83.93;38.80;;;26.50;2201.60;;;;;;4901835;29;20032;-75
2022/01/14 08:10:29;;;;;;;84.82;38.00;;;26.30;2201.60;;;;;;4891682;29;20055;-78
2022/01/14 08:12:55;;;;;;;;;;;26.50;2201.60;;;;;;4893710;29;20029;-77
2022/01/14 08:15:21;;;;;;;69.95;34.72;;;26.50;2201.60;;;;;;4907784;29;20359;-76
2022/01/14 08:17:46;;;;;;;;;;;51.30;2227.20;;;;;;4906917;29;20059;-75
2022/01/14 08:20:12;;;;;;;80.45;35.10;;;51.30;2227.20;;;;;;4882870;29;19947;-77
2022/01/14 08:22:38;;;;;;;;;;;51.50;2227.20;;;;;;4883184;29;20037;-75
2022/01/14 08:25:04;;;;;;;84.78;34.78;;;51.50;2227.20;;;;;;4882910;29;19917;-77
2022/01/14 08:27:30;;;;;;;87.97;39.10;;;51.50;2227.20;;;;;;4882670;29;20039;-78
2022/01/14 08:29:56;;;;;;;;;;;51.60;2227.20;;;;;;4899697;29;20037;-75
2022/01/14 08:32:22;;;;;;;78.70;36.75;;;51.60;2227.20;;;;;;4899156;29;19930;-75
2022/01/14 08:34:48;;;;;;;;;;;51.40;2227.20;;;;;;4884794;29;20492;-79
2022/01/14 08:37:14;;;;;;;65.93;30.85;;;26.50;2201.60;;;;;;4936789;29;20327;-77
2022/01/14 08:39:39;;;;;;;;;;;51.20;2227.20;;;;;;4937695;29;20036;-75
2022/01/14 08:42:08;;;;;;;74.63;34.78;;;51.50;2227.20;;;;;;4936867;29;20378;-75
2022/01/14 08:44:36;;;;;;;81.47;38.97;;;51.50;2227.20;;;;;;4919044;29;20036;-76
2022/01/14 08:47:04;;;;;;;87.50;39.83;;;51.80;2227.20;;;;;;4937168;29;20366;-74
2022/01/14 08:49:30;;;;;;;85.78;37.83;;;51.80;2227.20;;;;;;4919825;29;20024;-77
2022/01/14 08:51:56;;;;;;;74.32;39.58;;;52.00;2227.20;;;;;;4936950;29;20043;-76
2022/01/14 08:54:22;;;;;;;;;;;52.10;2227.20;;;;;;4920204;29;20024;-80
2022/01/14 08:56:48;;;;;;;237.52;107.05;;;52.00;2227.20;;;;;;4936866;29;19961;-75
2022/01/14 08:59:17;;;;;;;105.93;48.00;;;51.60;2227.20;;;;;;4936421;29;20059;-75
2022/01/14 09:01:44;;;;;;;275.13;122.85;;;51.90;2227.20;;;;;;4936878;29;20024;-77
2022/01/14 09:04:10;;;;;;;136.05;61.22;;;51.60;2227.20;;;;;;4918684;29;20027;-77
2022/01/14 09:06:35;;;;;;;;;;;51.70;2227.20;;;;;;4937102;29;20031;-76
2022/01/14 09:09:02;;;;;;;88.10;40.60;;;51.80;2227.20;;;;;;4919886;29;19910;-79
2022/01/14 09:11:28;;;;;;;83.88;37.40;;;52.10;2227.20;;;;;;4936704;29;20074;-82
2022/01/14 09:13:53;;;;;;;75.35;35.33;;;76.90;2227.20;;;;;;4936968;29;20461;-82
2022/01/14 09:16:20;;;;;;;104.75;47.60;;;76.90;2227.20;;;;;;4927702;29;20028;-80
2022/01/14 09:18:49;;;;;;;78.78;37.33;;;76.90;2227.20;;;;;;4917879;29;20461;-77
2022/01/14 09:21:16;;;;;;;77.80;36.17;;;77.10;2227.20;;;;;;4909635;29;20099;-79
2022/01/14 09:23:44;;;;;;;81.75;39.60;;;77.20;2227.20;;;;;;4910016;29;20059;-79
2022/01/14 09:26:10;;;;;;;90.78;42.40;;;77.10;2227.20;;;;;;4892053;29;20060;-81
2022/01/14 09:28:36;;;;;;;99.50;47.60;;;76.90;2227.20;;;;;;4908945;29;20028;-85
2022/01/14 09:31:02;;;;;;;;;;;76.90;2227.20;;;;;;4909736;29;20040;-88
2022/01/14 09:33:27;;;;;;;94.35;41.10;;;76.80;2227.20;;;;;;4894647;29;19908;-85
2022/01/14 09:35:53;;;;;;;71.40;37.17;;;76.90;2227.20;;;;;;4917625;29;20377;-86
2022/01/14 09:38:21;;;;;;;;;;;52.10;2227.20;;;;;;4919243;29;20087;-79
2022/01/14 09:40:49;;;;;;;94.95;42.53;;;52.10;2227.20;;;;;;4936450;29;19911;-75
2022/01/14 09:43:16;;;;;;;112.85;51.47;;;52.10;2227.20;;;;;;4936710;29;20024;-79
2022/01/14 09:45:42;;;;;;;107.82;48.70;;;52.10;2227.20;;;;;;4904409;29;20033;-78
2022/01/14 09:48:08;;;;;;;97.35;43.88;;;77.10;2227.20;;;;;;4906195;29;20087;-86
2022/01/14 09:50:34;;;;;;;93.35;43.97;;;77.10;2227.20;;;;;;4910658;29;20037;-80
2022/01/14 09:53:00;;;;;;;91.57;44.03;;;77.10;2227.20;;;;;;4906618;29;20051;-75
2022/01/14 09:55:26;;;;;;;82.60;40.10;;;77.20;2227.20;;;;;;4909469;29;20469;-77
2022/01/14 09:57:54;;;;;;;;;;;77.10;2227.20;;;;;;4892772;29;20045;-82
2022/01/14 10:00:21;;;;;;;90.97;42.45;;;77.30;2227.20;;;;;;4913090;29;19914;-80
2022/01/14 10:02:49;;;;;;;100.55;43.15;;;77.40;2227.20;;;;;;4900878;29;20068;-77
2022/01/14 10:05:38;;;;;;;95.40;44.97;;;77.50;2227.20;;;;;;4899850;29;20024;-75
2022/01/14 10:08:23;;;;;;;98.32;43.85;;;77.60;2227.20;;;;;;4911155;29;20040;-85
2022/01/14 10:10:55;;;;;;;82.20;41.00;;;102.60;2227.20;;;;;;4893323;29;20055;-80
2022/01/14 10:13:28;;;;;;;76.50;37.92;;;103.20;2227.20;;;;;;4907840;29;20036;-82
2022/01/14 10:16:03;;;;;;;82.97;38.97;;;128.00;2252.80;;;;;;4906026;29;20024;-75
2022/01/14 10:18:30;;;;;;;86.03;40.42;;;128.60;2252.80;;;;;;4906949;29;20023;-79
2022/01/14 10:21:01;;;;;;;97.35;44.63;;;128.70;2252.80;;;;;;4905600;29;20039;-81
2022/01/14 10:23:46;;;;;;;63.60;32.25;;;153.80;2252.80;;;;;;4909479;29;20020;-79
2022/01/14 10:26:16;;;;;;;83.97;40.63;;;153.90;2252.80;;;;;;4905531;29;20036;-78
2022/01/14 10:28:45;;;;;;;63.13;32.63;;;154.10;2252.80;;;;;;4880926;29;20084;-80
2022/01/14 10:31:12;;;;;;;94.95;44.83;;;154.20;2252.80;;;;;;4881188;29;20044;-83
2022/01/14 10:33:38;;;;;;;43.13;21.27;;;154.50;2252.80;;;;;;4921786;29;20028;-84
2022/01/14 10:36:04;;;;;;;30.15;15.93;;;154.50;2252.80;;;;;;4914064;29;20385;-84
2022/01/14 10:38:46;;;;;;;33.15;14.65;;;179.40;2252.80;;;;;;4908388;29;20524;-82
2022/01/14 10:41:11;;;;;;;27.83;13.85;;;179.70;2252.80;;;;;;4909490;29;20115;-76
2022/01/14 10:43:41;;;;;;;23.60;12.73;;;179.70;2252.80;;;;;;4902982;29;20104;-75
2022/01/14 10:46:08;;;;;;;27.42;14.27;;;179.80;2252.80;;;;;;4897698;29;20036;-75
2022/01/14 10:48:37;;;;;;;30.20;14.02;;;179.90;2252.80;;;;;;4897509;29;20103;-79
2022/01/14 10:51:16;;;;;;;26.67;13.88;;;180.10;2252.80;;;;;;4933862;29;20114;-78
2022/01/14 10:53:51;;;;;;;29.02;14.25;;;204.80;2252.80;;;;;;4900822;29;20021;-83
2022/01/14 10:56:27;;;;;;;31.90;15.73;;;205.00;2252.80;;;;;;4908271;29;20119;-83
2022/01/14 10:58:56;;;;;;;30.60;14.23;;;205.00;2252.80;;;;;;4906632;29;20389;-82
2022/01/14 11:01:24;;;;;;;27.95;14.43;;;205.00;2252.80;;;;;;4906557;29;20032;-78
2022/01/14 11:04:02;;;;;;;32.15;18.45;;;205.10;2252.80;;;;;;4908635;29;20031;-75
2022/01/14 11:06:39;;;;;;;27.50;14.57;;;205.00;2252.80;;;;;;4895222;29;20052;-83
2022/01/14 11:09:08;;;;;;;28.23;15.23;;;205.10;2252.80;;;;;;4888105;29;20051;-76
2022/01/14 11:11:37;;;;;;;30.80;16.23;;;205.30;2252.80;;;;;;4890296;29;20093;-79
2022/01/14 11:14:04;;;;;;;25.80;14.52;;;205.40;2252.80;;;;;;4881764;29;20021;-81
2022/01/14 11:16:30;;;;;;;30.67;14.80;;;205.60;2227.20;;;;;;4897435;29;20025;-84
2022/01/14 11:18:58;;;;;;;;;;;205.60;2201.60;;;;;;4906118;29;20059;-83
2022/01/14 11:24:20;;;;;;;27.33;14.10;;;205.70;2176.00;;;;;;4909317;29;20492;-78
2022/01/14 11:26:48;;;;;;;26.27;13.80;;;230.40;2201.60;;;;;;4907848;29;20056;-74
2022/01/14 11:29:16;;;;;;;26.65;14.48;;;230.40;2176.00;;;;;;4912944;29;20032;-84
2022/01/14 11:31:44;;;;;;;28.27;13.75;;;230.50;2201.60;;;;;;4895226;29;20048;-76
2022/01/14 11:34:31;;;;;;;29.08;15.23;;;230.50;2201.60;;;;;;4912578;29;20485;-77
2022/01/14 11:37:00;;;;;;;27.67;13.88;;;230.60;2176.00;;;;;;4918171;29;20040;-89
2022/01/14 11:39:36;;;;;;;29.02;14.88;;;230.60;2176.00;;;;;;4918834;29;20084;-88
2022/01/14 11:42:04;;;;;;;25.97;13.33;;;230.60;2176.00;;;;;;4911317;29;20473;-89
2022/01/14 11:44:55;;;;;;;26.45;14.55;;;230.60;2176.00;;;;;;4911163;29;20095;-86
2022/01/14 11:47:23;;;;;;;23.70;12.85;;;230.60;2201.60;;;;;;4911945;29;20039;-83
2022/01/14 11:49:50;;;;;;;28.88;13.90;;;230.50;2201.60;;;;;;4902909;29;20035;-76
2022/01/14 11:52:50;;;;;;;26.25;15.65;;;230.50;2252.80;;;;;;4919694;29;20036;-77
2022/01/14 11:55:24;;;;;;;32.38;16.25;;;230.60;2227.20;;;;;;4919510;29;20039;-75
2022/01/14 11:57:55;;;;;;;30.60;15.85;;;230.60;2201.60;;;;;;4903243;29;20064;-86
2022/01/14 12:03:25;;;;;;;28.45;16.13;;;230.60;2227.20;;;;;;4919651;29;20028;-87
2022/01/14 12:05:53;;;;;;;29.70;15.10;;;230.60;2252.80;;;;;;4919630;29;20028;-88
2022/01/14 12:08:23;;;;;;;27.48;14.70;;;230.60;2252.80;;;;;;4919210;29;20032;-83
2022/01/14 12:10:59;;;;;;;27.95;14.48;;;230.60;2252.80;;;;;;4919175;29;20048;-88
2022/01/14 12:13:43;;;;;;;28.27;13.93;;;230.60;2252.80;;;;;;4911163;29;20362;-87
2022/01/14 12:16:09;;;;;;;25.13;13.80;;;230.60;2252.80;;;;;;4910186;29;20071;-84
2022/01/14 12:18:53;;;;;;;;;;;230.60;2252.80;;;;;;4908586;29;20036;-91
2022/01/14 12:21:19;;;;;;;30.40;14.18;;;230.60;2252.80;;;;;;4901212;29;19911;-83
2022/01/14 12:23:44;;;;;;;;;;;230.60;2252.80;;;;;;4919066;29;20032;-74
2022/01/14 12:26:15;;;;;;;37.75;19.60;;;230.50;2252.80;;;;;;4913090;29;19934;-83
2022/01/14 12:28:43;;;;;;;30.52;16.85;;;230.60;2252.80;;;;;;4895117;29;20425;-76
2022/01/14 12:31:09;;;;;;;27.27;13.43;;;230.50;2252.80;;;;;;4911481;29;20083;-86
2022/01/14 12:33:45;;;;;;;;;;;230.50;2252.80;;;;;;4910456;29;20488;-76
2022/01/14 12:36:17;;;;;;;23.95;12.68;;;230.40;2252.80;;;;;;4911863;29;19918;-85
2022/01/14 12:38:43;;;;;;;25.55;13.30;;;205.70;2252.80;;;;;;4913131;29;20048;-85
2022/01/14 12:41:20;;;;;;;30.20;15.30;;;205.70;2252.80;;;;;;4910894;29;20028;-85
2022/01/14 12:43:57;;;;;;;45.03;21.45;;;205.60;2252.80;;;;;;4911237;29;20059;-82
2022/01/14 12:49:14;;;;;;;33.50;16.23;;;205.50;2252.80;;;;;;4910778;29;19931;-77
2022/01/14 12:51:40;;;;;;;28.77;15.45;;;205.40;2252.80;;;;;;4908028;29;20079;-83
2022/01/14 12:54:07;;;;;;;;;;;205.40;2252.80;;;;;;4892025;29;20061;-76
2022/01/14 12:56:35;;;;;;;29.30;15.52;;;205.30;2252.80;;;;;;4909496;29;20328;-83
2022/01/14 12:59:10;;;;;;;33.05;18.95;;;205.30;2252.80;;;;;;4910062;29;20036;-86
2022/01/14 13:01:43;;;;;;;41.78;20.70;;;205.30;2252.80;;;;;;4910058;29;20035;-84